sensor_id;sensor_type;location;lat;lon;timestamp;temperature;humidity
45044;DHT22;30784;48.490;9.688;2022-09-17T00:01:07;12.80;56.90
45044;DHT22;30784;48.490;9.688;2022-09-17T00:03:34;12.80;56.80
45044;DHT22;30784;48.490;9.688;2022-09-17T00:06:09;12.80;56.80
45044;DHT22;30784;48.490;9.688;2022-09-17T00:08:38;12.80;56.80
45044;DHT22;30784;48.490;9.688;2022-09-17T00:11:26;12.80;56.80
45044;DHT22;30784;48.490;9.688;2022-09-17T00:13:53;12.70;56.70
45044;DHT22;30784;48.490;9.688;2022-09-17T00:18:55;12.70;56.80
45044;DHT22;30784;48.490;9.688;2022-09-17T00:21:22;12.70;56.80
45044;DHT22;30784;48.490;9.688;2022-09-17T00:23:51;12.70;56.90
45044;DHT22;30784;48.490;9.688;2022-09-17T00:26:17;12.70;56.90
45044;DHT22;30784;48.490;9.688;2022-09-17T00:28:42;12.70;57.00
45044;DHT22;30784;48.490;9.688;2022-09-17T00:31:12;12.70;57.00
45044;DHT22;30784;48.490;9.688;2022-09-17T00:33:38;12.70;57.00
45044;DHT22;30784;48.490;9.688;2022-09-17T00:36:05;12.60;56.90
45044;DHT22;30784;48.490;9.688;2022-09-17T00:38:31;12.60;56.90
45044;DHT22;30784;48.490;9.688;2022-09-17T00:40:57;12.70;57.00
45044;DHT22;30784;48.490;9.688;2022-09-17T00:43:35;12.60;57.10
45044;DHT22;30784;48.490;9.688;2022-09-17T00:46:04;12.60;56.90
45044;DHT22;30784;48.490;9.688;2022-09-17T00:48:31;12.60;57.10
45044;DHT22;30784;48.490;9.688;2022-09-17T00:50:58;12.60;57.20
45044;DHT22;30784;48.490;9.688;2022-09-17T00:53:26;12.60;57.10
45044;DHT22;30784;48.490;9.688;2022-09-17T00:58:38;12.50;56.90
45044;DHT22;30784;48.490;9.688;2022-09-17T01:01:04;12.60;57.00
45044;DHT22;30784;48.490;9.688;2022-09-17T01:03:31;12.50;57.00
45044;DHT22;30784;48.490;9.688;2022-09-17T01:06:14;12.50;57.00
45044;DHT22;30784;48.490;9.688;2022-09-17T01:16:51;12.40;56.90
45044;DHT22;30784;48.490;9.688;2022-09-17T01:19:42;12.40;57.00
45044;DHT22;30784;48.490;9.688;2022-09-17T01:22:53;12.40;57.00
45044;DHT22;30784;48.490;9.688;2022-09-17T01:25:37;12.30;57.00
45044;DHT22;30784;48.490;9.688;2022-09-17T01:37:03;12.30;57.30
45044;DHT22;30784;48.490;9.688;2022-09-17T01:47:46;12.20;57.40
45044;DHT22;30784;48.490;9.688;2022-09-17T01:50:17;12.30;57.60
45044;DHT22;30784;48.490;9.688;2022-09-17T01:52:47;12.30;57.80
45044;DHT22;30784;48.490;9.688;2022-09-17T01:55:15;12.30;57.80
45044;DHT22;30784;48.490;9.688;2022-09-17T01:57:51;12.30;57.80
45044;DHT22;30784;48.490;9.688;2022-09-17T02:00:18;12.20;57.70
45044;DHT22;30784;48.490;9.688;2022-09-17T02:02:49;12.20;58.20
45044;DHT22;30784;48.490;9.688;2022-09-17T02:07:57;12.20;57.70
45044;DHT22;30784;48.490;9.688;2022-09-17T02:10:31;12.20;57.70
45044;DHT22;30784;48.490;9.688;2022-09-17T02:13:12;12.20;57.60
45044;DHT22;30784;48.490;9.688;2022-09-17T02:15:41;12.20;57.60
45044;DHT22;30784;48.490;9.688;2022-09-17T02:18:14;12.20;57.70
45044;DHT22;30784;48.490;9.688;2022-09-17T02:20:51;12.20;57.80
45044;DHT22;30784;48.490;9.688;2022-09-17T02:23:28;12.20;57.80
45044;DHT22;30784;48.490;9.688;2022-09-17T02:26:07;12.20;57.80
45044;DHT22;30784;48.490;9.688;2022-09-17T02:28:47;12.30;57.80
45044;DHT22;30784;48.490;9.688;2022-09-17T02:31:14;12.30;57.80
45044;DHT22;30784;48.490;9.688;2022-09-17T02:33:42;12.30;57.90
45044;DHT22;30784;48.490;9.688;2022-09-17T02:36:09;12.20;57.80
45044;DHT22;30784;48.490;9.688;2022-09-17T02:38:36;12.20;57.80
45044;DHT22;30784;48.490;9.688;2022-09-17T02:41:11;12.20;57.90
45044;DHT22;30784;48.490;9.688;2022-09-17T02:51:46;12.30;57.90
45044;DHT22;30784;48.490;9.688;2022-09-17T02:57:14;12.20;57.80
45044;DHT22;30784;48.490;9.688;2022-09-17T03:00:08;12.20;57.90
45044;DHT22;30784;48.490;9.688;2022-09-17T03:02:45;12.20;57.80
45044;DHT22;30784;48.490;9.688;2022-09-17T03:05:14;12.20;57.90
45044;DHT22;30784;48.490;9.688;2022-09-17T03:07:41;12.20;58.00
45044;DHT22;30784;48.490;9.688;2022-09-17T03:10:07;12.20;58.20
45044;DHT22;30784;48.490;9.688;2022-09-17T03:12:33;12.20;58.80
45044;DHT22;30784;48.490;9.688;2022-09-17T03:14:59;12.20;58.20
45044;DHT22;30784;48.490;9.688;2022-09-17T03:17:25;12.20;58.30
45044;DHT22;30784;48.490;9.688;2022-09-17T03:19:51;12.20;58.30
45044;DHT22;30784;48.490;9.688;2022-09-17T03:22:16;12.10;58.30
45044;DHT22;30784;48.490;9.688;2022-09-17T03:24:42;12.10;58.40
45044;DHT22;30784;48.490;9.688;2022-09-17T03:27:08;12.10;58.40
45044;DHT22;30784;48.490;9.688;2022-09-17T03:29:33;12.10;58.40
45044;DHT22;30784;48.490;9.688;2022-09-17T03:31:59;12.00;58.40
45044;DHT22;30784;48.490;9.688;2022-09-17T03:34:25;12.00;58.50
45044;DHT22;30784;48.490;9.688;2022-09-17T03:36:51;12.00;58.50
45044;DHT22;30784;48.490;9.688;2022-09-17T03:39:16;12.00;59.00
45044;DHT22;30784;48.490;9.688;2022-09-17T03:41:42;11.90;58.50
45044;DHT22;30784;48.490;9.688;2022-09-17T03:44:08;11.90;58.60
45044;DHT22;30784;48.490;9.688;2022-09-17T03:46:35;11.90;58.60
45044;DHT22;30784;48.490;9.688;2022-09-17T03:49:00;11.90;58.70
45044;DHT22;30784;48.490;9.688;2022-09-17T03:51:26;11.90;58.80
45044;DHT22;30784;48.490;9.688;2022-09-17T03:53:55;11.90;58.90
45044;DHT22;30784;48.490;9.688;2022-09-17T03:56:20;11.90;58.90
45044;DHT22;30784;48.490;9.688;2022-09-17T03:58:46;11.90;58.90
45044;DHT22;30784;48.490;9.688;2022-09-17T04:01:12;11.90;58.90
45044;DHT22;30784;48.490;9.688;2022-09-17T04:03:40;11.90;58.80
45044;DHT22;30784;48.490;9.688;2022-09-17T04:06:06;11.90;58.90
45044;DHT22;30784;48.490;9.688;2022-09-17T04:08:31;11.90;58.80
45044;DHT22;30784;48.490;9.688;2022-09-17T04:10:58;11.90;58.90
45044;DHT22;30784;48.490;9.688;2022-09-17T04:13:24;11.90;58.90
45044;DHT22;30784;48.490;9.688;2022-09-17T04:15:49;11.90;58.80
45044;DHT22;30784;48.490;9.688;2022-09-17T04:18:16;11.90;58.90
45044;DHT22;30784;48.490;9.688;2022-09-17T04:20:42;11.90;58.90
45044;DHT22;30784;48.490;9.688;2022-09-17T04:23:12;11.90;58.90
45044;DHT22;30784;48.490;9.688;2022-09-17T04:25:38;11.90;59.10
45044;DHT22;30784;48.490;9.688;2022-09-17T04:28:03;11.90;59.00
45044;DHT22;30784;48.490;9.688;2022-09-17T04:30:29;11.90;59.10
45044;DHT22;30784;48.490;9.688;2022-09-17T04:32:55;11.80;59.00
45044;DHT22;30784;48.490;9.688;2022-09-17T04:35:20;11.90;59.00
45044;DHT22;30784;48.490;9.688;2022-09-17T04:37:53;11.90;59.00
45044;DHT22;30784;48.490;9.688;2022-09-17T04:40:19;11.80;58.90
45044;DHT22;30784;48.490;9.688;2022-09-17T04:42:45;11.80;59.10
45044;DHT22;30784;48.490;9.688;2022-09-17T04:45:11;11.80;59.20
45044;DHT22;30784;48.490;9.688;2022-09-17T04:47:40;11.80;59.30
45044;DHT22;30784;48.490;9.688;2022-09-17T04:50:06;11.70;59.30
45044;DHT22;30784;48.490;9.688;2022-09-17T04:52:32;11.70;59.30
45044;DHT22;30784;48.490;9.688;2022-09-17T04:54:58;11.70;59.30
45044;DHT22;30784;48.490;9.688;2022-09-17T04:57:23;11.70;59.30
45044;DHT22;30784;48.490;9.688;2022-09-17T04:59:50;11.70;59.40
45044;DHT22;30784;48.490;9.688;2022-09-17T05:02:16;11.70;59.40
45044;DHT22;30784;48.490;9.688;2022-09-17T05:04:42;11.70;59.50
45044;DHT22;30784;48.490;9.688;2022-09-17T05:07:08;11.60;59.50
45044;DHT22;30784;48.490;9.688;2022-09-17T05:09:33;11.60;59.60
45044;DHT22;30784;48.490;9.688;2022-09-17T05:11:59;11.60;59.70
45044;DHT22;30784;48.490;9.688;2022-09-17T05:14:25;11.60;59.80
45044;DHT22;30784;48.490;9.688;2022-09-17T05:16:50;11.60;59.80
45044;DHT22;30784;48.490;9.688;2022-09-17T05:19:16;11.50;59.90
45044;DHT22;30784;48.490;9.688;2022-09-17T05:21:42;11.50;60.00
45044;DHT22;30784;48.490;9.688;2022-09-17T05:24:07;11.50;60.10
45044;DHT22;30784;48.490;9.688;2022-09-17T05:26:33;11.50;60.30
45044;DHT22;30784;48.490;9.688;2022-09-17T05:28:59;11.50;60.50
45044;DHT22;30784;48.490;9.688;2022-09-17T05:31:24;11.50;60.50
45044;DHT22;30784;48.490;9.688;2022-09-17T05:33:50;11.50;60.60
45044;DHT22;30784;48.490;9.688;2022-09-17T05:36:17;11.50;60.40
45044;DHT22;30784;48.490;9.688;2022-09-17T05:38:42;11.50;60.40
45044;DHT22;30784;48.490;9.688;2022-09-17T05:41:08;11.50;60.30
45044;DHT22;30784;48.490;9.688;2022-09-17T05:43:34;11.50;60.40
45044;DHT22;30784;48.490;9.688;2022-09-17T05:46:01;11.50;60.40
45044;DHT22;30784;48.490;9.688;2022-09-17T05:48:27;11.50;61.10
45044;DHT22;30784;48.490;9.688;2022-09-17T05:50:54;11.40;60.60
45044;DHT22;30784;48.490;9.688;2022-09-17T05:53:19;11.50;60.50
45044;DHT22;30784;48.490;9.688;2022-09-17T05:55:45;11.50;60.40
45044;DHT22;30784;48.490;9.688;2022-09-17T05:58:16;11.50;60.40
45044;DHT22;30784;48.490;9.688;2022-09-17T06:00:42;11.50;60.40
45044;DHT22;30784;48.490;9.688;2022-09-17T06:03:13;11.50;60.50
45044;DHT22;30784;48.490;9.688;2022-09-17T06:05:39;11.50;60.40
45044;DHT22;30784;48.490;9.688;2022-09-17T06:08:05;11.50;60.20
45044;DHT22;30784;48.490;9.688;2022-09-17T06:10:35;11.50;60.20
45044;DHT22;30784;48.490;9.688;2022-09-17T06:13:01;11.40;60.20
45044;DHT22;30784;48.490;9.688;2022-09-17T06:15:27;11.40;60.20
45044;DHT22;30784;48.490;9.688;2022-09-17T06:17:53;11.40;60.30
45044;DHT22;30784;48.490;9.688;2022-09-17T06:20:19;11.40;60.50
45044;DHT22;30784;48.490;9.688;2022-09-17T06:22:45;11.40;60.70
45044;DHT22;30784;48.490;9.688;2022-09-17T06:25:10;11.40;60.90
45044;DHT22;30784;48.490;9.688;2022-09-17T06:27:36;11.40;61.00
45044;DHT22;30784;48.490;9.688;2022-09-17T06:30:03;11.40;61.00
45044;DHT22;30784;48.490;9.688;2022-09-17T06:32:28;11.40;60.90
45044;DHT22;30784;48.490;9.688;2022-09-17T06:34:54;11.40;60.90
45044;DHT22;30784;48.490;9.688;2022-09-17T06:37:30;11.40;60.80
45044;DHT22;30784;48.490;9.688;2022-09-17T06:39:56;11.50;60.80
45044;DHT22;30784;48.490;9.688;2022-09-17T06:42:23;11.50;60.70
45044;DHT22;30784;48.490;9.688;2022-09-17T06:44:49;11.50;60.70
45044;DHT22;30784;48.490;9.688;2022-09-17T06:47:14;11.50;60.50
45044;DHT22;30784;48.490;9.688;2022-09-17T06:49:40;11.50;60.50
45044;DHT22;30784;48.490;9.688;2022-09-17T06:52:05;11.50;60.60
45044;DHT22;30784;48.490;9.688;2022-09-17T06:54:31;11.50;60.50
45044;DHT22;30784;48.490;9.688;2022-09-17T06:56:57;11.50;60.50
45044;DHT22;30784;48.490;9.688;2022-09-17T06:59:23;11.50;60.70
45044;DHT22;30784;48.490;9.688;2022-09-17T07:01:48;11.60;60.80
45044;DHT22;30784;48.490;9.688;2022-09-17T07:04:14;11.50;60.60
45044;DHT22;30784;48.490;9.688;2022-09-17T07:06:42;11.50;60.60
45044;DHT22;30784;48.490;9.688;2022-09-17T07:09:07;11.60;60.70
45044;DHT22;30784;48.490;9.688;2022-09-17T07:11:34;11.60;60.60
45044;DHT22;30784;48.490;9.688;2022-09-17T07:13:59;11.60;60.70
45044;DHT22;30784;48.490;9.688;2022-09-17T07:16:25;11.60;60.60
45044;DHT22;30784;48.490;9.688;2022-09-17T07:18:56;11.60;60.60
45044;DHT22;30784;48.490;9.688;2022-09-17T07:21:22;11.60;60.50
45044;DHT22;30784;48.490;9.688;2022-09-17T07:23:49;11.70;60.60
45044;DHT22;30784;48.490;9.688;2022-09-17T07:26:15;11.70;60.40
45044;DHT22;30784;48.490;9.688;2022-09-17T07:28:42;11.70;60.50
45044;DHT22;30784;48.490;9.688;2022-09-17T07:31:09;11.70;60.20
45044;DHT22;30784;48.490;9.688;2022-09-17T07:33:35;11.70;60.30
45044;DHT22;30784;48.490;9.688;2022-09-17T07:36:07;11.70;60.20
45044;DHT22;30784;48.490;9.688;2022-09-17T07:38:33;11.80;60.40
45044;DHT22;30784;48.490;9.688;2022-09-17T07:41:04;11.80;60.10
45044;DHT22;30784;48.490;9.688;2022-09-17T07:43:32;11.80;60.00
45044;DHT22;30784;48.490;9.688;2022-09-17T07:45:59;11.70;59.80
45044;DHT22;30784;48.490;9.688;2022-09-17T07:48:25;11.80;60.30
45044;DHT22;30784;48.490;9.688;2022-09-17T07:50:51;11.80;59.60
45044;DHT22;30784;48.490;9.688;2022-09-17T07:53:18;11.80;59.70
45044;DHT22;30784;48.490;9.688;2022-09-17T07:55:54;11.80;59.70
45044;DHT22;30784;48.490;9.688;2022-09-17T07:58:30;11.80;59.70
45044;DHT22;30784;48.490;9.688;2022-09-17T08:01:03;11.70;59.40
45044;DHT22;30784;48.490;9.688;2022-09-17T08:03:29;11.70;59.40
45044;DHT22;30784;48.490;9.688;2022-09-17T08:06:09;11.70;59.40
45044;DHT22;30784;48.490;9.688;2022-09-17T08:08:36;11.80;59.40
45044;DHT22;30784;48.490;9.688;2022-09-17T08:11:03;11.80;59.50
45044;DHT22;30784;48.490;9.688;2022-09-17T08:13:30;11.80;59.60
45044;DHT22;30784;48.490;9.688;2022-09-17T08:16:00;11.80;59.80
45044;DHT22;30784;48.490;9.688;2022-09-17T08:18:26;11.80;60.00
45044;DHT22;30784;48.490;9.688;2022-09-17T08:20:56;11.80;60.30
45044;DHT22;30784;48.490;9.688;2022-09-17T08:23:22;11.80;60.40
45044;DHT22;30784;48.490;9.688;2022-09-17T08:25:55;11.80;60.50
45044;DHT22;30784;48.490;9.688;2022-09-17T08:28:25;11.80;60.60
45044;DHT22;30784;48.490;9.688;2022-09-17T08:30:51;11.90;60.80
45044;DHT22;30784;48.490;9.688;2022-09-17T08:33:17;12.00;60.60
45044;DHT22;30784;48.490;9.688;2022-09-17T08:35:50;12.00;60.80
45044;DHT22;30784;48.490;9.688;2022-09-17T08:38:16;12.00;60.70
45044;DHT22;30784;48.490;9.688;2022-09-17T08:43:22;12.00;61.10
45044;DHT22;30784;48.490;9.688;2022-09-17T08:45:53;12.00;61.20
45044;DHT22;30784;48.490;9.688;2022-09-17T08:48:20;12.10;61.70
45044;DHT22;30784;48.490;9.688;2022-09-17T08:50:46;12.10;61.60
45044;DHT22;30784;48.490;9.688;2022-09-17T08:53:34;12.10;61.00
45044;DHT22;30784;48.490;9.688;2022-09-17T08:56:10;12.10;61.00
45044;DHT22;30784;48.490;9.688;2022-09-17T08:59:02;12.10;61.00
45044;DHT22;30784;48.490;9.688;2022-09-17T09:01:58;12.10;60.90
45044;DHT22;30784;48.490;9.688;2022-09-17T09:09:34;12.20;60.70
45044;DHT22;30784;48.490;9.688;2022-09-17T09:12:10;12.10;60.60
45044;DHT22;30784;48.490;9.688;2022-09-17T09:14:56;12.10;60.90
45044;DHT22;30784;48.490;9.688;2022-09-17T09:17:28;12.10;61.00
45044;DHT22;30784;48.490;9.688;2022-09-17T09:19:56;12.10;61.10
45044;DHT22;30784;48.490;9.688;2022-09-17T09:22:26;12.10;61.30
45044;DHT22;30784;48.490;9.688;2022-09-17T09:30:21;12.20;61.50
45044;DHT22;30784;48.490;9.688;2022-09-17T09:32:57;12.30;61.60
45044;DHT22;30784;48.490;9.688;2022-09-17T09:35:33;12.30;61.40
45044;DHT22;30784;48.490;9.688;2022-09-17T09:40:40;12.30;60.90
45044;DHT22;30784;48.490;9.688;2022-09-17T09:48:59;12.30;61.10
45044;DHT22;30784;48.490;9.688;2022-09-17T09:51:50;12.30;61.10
45044;DHT22;30784;48.490;9.688;2022-09-17T09:54:41;12.30;61.00
45044;DHT22;30784;48.490;9.688;2022-09-17T09:57:14;12.30;61.00
45044;DHT22;30784;48.490;9.688;2022-09-17T09:59:40;12.40;60.70
45044;DHT22;30784;48.490;9.688;2022-09-17T10:02:06;12.30;60.90
45044;DHT22;30784;48.490;9.688;2022-09-17T10:04:32;12.30;61.10
45044;DHT22;30784;48.490;9.688;2022-09-17T10:07:09;12.30;61.20
45044;DHT22;30784;48.490;9.688;2022-09-17T10:09:37;12.40;61.30
45044;DHT22;30784;48.490;9.688;2022-09-17T10:14:39;12.40;60.90
45044;DHT22;30784;48.490;9.688;2022-09-17T10:17:16;12.40;61.30
45044;DHT22;30784;48.490;9.688;2022-09-17T10:20:07;12.50;61.20
45044;DHT22;30784;48.490;9.688;2022-09-17T10:25:03;12.70;61.90
45044;DHT22;30784;48.490;9.688;2022-09-17T10:27:30;12.80;61.40
45044;DHT22;30784;48.490;9.688;2022-09-17T10:32:34;13.00;60.50
45044;DHT22;30784;48.490;9.688;2022-09-17T10:37:46;13.20;60.40
45044;DHT22;30784;48.490;9.688;2022-09-17T10:43:12;13.40;60.40
45044;DHT22;30784;48.490;9.688;2022-09-17T10:45:39;13.50;60.60
45044;DHT22;30784;48.490;9.688;2022-09-17T10:48:10;13.70;60.40
45044;DHT22;30784;48.490;9.688;2022-09-17T10:50:39;13.80;60.60
45044;DHT22;30784;48.490;9.688;2022-09-17T10:53:06;13.90;59.30
45044;DHT22;30784;48.490;9.688;2022-09-17T11:01:42;13.90;59.50
45044;DHT22;30784;48.490;9.688;2022-09-17T11:04:24;13.90;59.50
45044;DHT22;30784;48.490;9.688;2022-09-17T11:10:05;14.00;59.40
45044;DHT22;30784;48.490;9.688;2022-09-17T11:26:35;14.00;58.80
45044;DHT22;30784;48.490;9.688;2022-09-17T11:34:50;14.20;60.00
45044;DHT22;30784;48.490;9.688;2022-09-17T11:37:31;14.40;59.80
45044;DHT22;30784;48.490;9.688;2022-09-17T11:40:21;14.70;59.60
45044;DHT22;30784;48.490;9.688;2022-09-17T11:42:59;14.90;58.80
45044;DHT22;30784;48.490;9.688;2022-09-17T11:45:32;15.20;58.40
45044;DHT22;30784;48.490;9.688;2022-09-17T11:48:12;15.50;57.80
45044;DHT22;30784;48.490;9.688;2022-09-17T11:50:43;15.80;57.20
45044;DHT22;30784;48.490;9.688;2022-09-17T11:53:46;16.10;55.60
45044;DHT22;30784;48.490;9.688;2022-09-17T11:59:15;16.50;54.40
45044;DHT22;30784;48.490;9.688;2022-09-17T12:01:52;16.60;55.00
45044;DHT22;30784;48.490;9.688;2022-09-17T12:09:36;16.80;53.20
45044;DHT22;30784;48.490;9.688;2022-09-17T12:12:15;16.80;52.30
45044;DHT22;30784;48.490;9.688;2022-09-17T12:14:48;16.80;51.80
45044;DHT22;30784;48.490;9.688;2022-09-17T12:17:39;16.70;50.70
45044;DHT22;30784;48.490;9.688;2022-09-17T12:22:47;16.60;51.80
45044;DHT22;30784;48.490;9.688;2022-09-17T12:25:15;16.60;51.90
45044;DHT22;30784;48.490;9.688;2022-09-17T12:27:55;16.60;51.60
45044;DHT22;30784;48.490;9.688;2022-09-17T12:30:29;16.60;51.90
45044;DHT22;30784;48.490;9.688;2022-09-17T12:33:16;16.70;51.40
45044;DHT22;30784;48.490;9.688;2022-09-17T12:59:01;16.40;48.50
45044;DHT22;30784;48.490;9.688;2022-09-17T13:02:01;16.30;48.30
45044;DHT22;30784;48.490;9.688;2022-09-17T13:08:16;16.00;49.40
45044;DHT22;30784;48.490;9.688;2022-09-17T13:22:04;15.60;50.70
45044;DHT22;30784;48.490;9.688;2022-09-17T13:24:32;15.60;50.80
45044;DHT22;30784;48.490;9.688;2022-09-17T13:27:00;15.50;50.50
45044;DHT22;30784;48.490;9.688;2022-09-17T13:37:29;15.10;51.10
45044;DHT22;30784;48.490;9.688;2022-09-17T13:39:55;15.00;51.40
45044;DHT22;30784;48.490;9.688;2022-09-17T13:42:23;15.00;51.80
45044;DHT22;30784;48.490;9.688;2022-09-17T13:47:35;14.80;52.00
45044;DHT22;30784;48.490;9.688;2022-09-17T13:50:06;14.80;52.20
45044;DHT22;30784;48.490;9.688;2022-09-17T13:52:36;14.70;52.50
45044;DHT22;30784;48.490;9.688;2022-09-17T13:55:03;14.70;52.40
45044;DHT22;30784;48.490;9.688;2022-09-17T13:57:31;14.70;52.30
45044;DHT22;30784;48.490;9.688;2022-09-17T13:59:59;14.60;52.50
45044;DHT22;30784;48.490;9.688;2022-09-17T14:02:27;14.50;52.70
45044;DHT22;30784;48.490;9.688;2022-09-17T14:05:28;14.50;52.50
45044;DHT22;30784;48.490;9.688;2022-09-17T14:08:13;14.40;52.20
45044;DHT22;30784;48.490;9.688;2022-09-17T14:10:48;14.20;52.10
45044;DHT22;30784;48.490;9.688;2022-09-17T14:13:46;14.10;50.70
45044;DHT22;30784;48.490;9.688;2022-09-17T14:27:25;13.40;53.10
45044;DHT22;30784;48.490;9.688;2022-09-17T14:30:24;13.20;53.20
45044;DHT22;30784;48.490;9.688;2022-09-17T14:33:06;13.00;53.30
45044;DHT22;30784;48.490;9.688;2022-09-17T14:35:42;13.00;54.10
45044;DHT22;30784;48.490;9.688;2022-09-17T14:38:13;12.90;54.60
45044;DHT22;30784;48.490;9.688;2022-09-17T14:40:45;12.90;55.00
45044;DHT22;30784;48.490;9.688;2022-09-17T14:46:29;12.90;54.90
45044;DHT22;30784;48.490;9.688;2022-09-17T14:51:43;13.10;55.60
45044;DHT22;30784;48.490;9.688;2022-09-17T14:57:26;13.20;56.00
45044;DHT22;30784;48.490;9.688;2022-09-17T14:59:57;13.30;55.90
45044;DHT22;30784;48.490;9.688;2022-09-17T15:04:54;13.60;56.00
45044;DHT22;30784;48.490;9.688;2022-09-17T15:07:21;13.60;55.90
45044;DHT22;30784;48.490;9.688;2022-09-17T15:09:47;13.80;55.70
45044;DHT22;30784;48.490;9.688;2022-09-17T15:12:16;13.80;55.40
45044;DHT22;30784;48.490;9.688;2022-09-17T15:14:45;13.90;55.30
45044;DHT22;30784;48.490;9.688;2022-09-17T15:17:14;14.00;55.30
45044;DHT22;30784;48.490;9.688;2022-09-17T15:19:47;14.00;55.30
45044;DHT22;30784;48.490;9.688;2022-09-17T15:27:36;14.10;54.70
45044;DHT22;30784;48.490;9.688;2022-09-17T15:30:17;14.10;54.80
45044;DHT22;30784;48.490;9.688;2022-09-17T15:40:30;14.20;54.30
45044;DHT22;30784;48.490;9.688;2022-09-17T15:43:17;14.20;54.50
45044;DHT22;30784;48.490;9.688;2022-09-17T15:45:46;14.20;54.50
45044;DHT22;30784;48.490;9.688;2022-09-17T15:48:35;14.30;54.60
45044;DHT22;30784;48.490;9.688;2022-09-17T15:51:04;14.20;54.50
45044;DHT22;30784;48.490;9.688;2022-09-17T15:53:32;14.30;54.60
45044;DHT22;30784;48.490;9.688;2022-09-17T16:08:48;14.10;54.50
45044;DHT22;30784;48.490;9.688;2022-09-17T16:11:22;14.00;54.60
45044;DHT22;30784;48.490;9.688;2022-09-17T16:13:49;14.00;54.60
45044;DHT22;30784;48.490;9.688;2022-09-17T16:16:19;13.90;54.70
45044;DHT22;30784;48.490;9.688;2022-09-17T16:18:46;13.90;54.90
45044;DHT22;30784;48.490;9.688;2022-09-17T16:21:13;13.80;55.00
45044;DHT22;30784;48.490;9.688;2022-09-17T16:23:39;13.80;55.40
45044;DHT22;30784;48.490;9.688;2022-09-17T16:26:09;13.70;55.50
45044;DHT22;30784;48.490;9.688;2022-09-17T16:28:37;13.70;55.40
45044;DHT22;30784;48.490;9.688;2022-09-17T16:31:04;13.60;55.60
45044;DHT22;30784;48.490;9.688;2022-09-17T16:33:30;13.60;55.60
45044;DHT22;30784;48.490;9.688;2022-09-17T16:35:57;13.50;55.80
45044;DHT22;30784;48.490;9.688;2022-09-17T16:38:24;13.50;55.80
45044;DHT22;30784;48.490;9.688;2022-09-17T16:40:49;13.50;55.90
45044;DHT22;30784;48.490;9.688;2022-09-17T16:43:17;13.40;56.10
45044;DHT22;30784;48.490;9.688;2022-09-17T16:45:43;13.40;56.30
45044;DHT22;30784;48.490;9.688;2022-09-17T16:48:22;13.40;56.60
45044;DHT22;30784;48.490;9.688;2022-09-17T16:50:47;13.40;56.70
45044;DHT22;30784;48.490;9.688;2022-09-17T16:53:13;13.30;56.60
45044;DHT22;30784;48.490;9.688;2022-09-17T16:55:38;13.30;56.70
45044;DHT22;30784;48.490;9.688;2022-09-17T16:58:04;13.20;56.70
45044;DHT22;30784;48.490;9.688;2022-09-17T17:00:30;13.20;56.80
45044;DHT22;30784;48.490;9.688;2022-09-17T17:02:56;13.20;56.90
45044;DHT22;30784;48.490;9.688;2022-09-17T17:05:23;13.10;57.00
45044;DHT22;30784;48.490;9.688;2022-09-17T17:07:49;13.10;57.10
45044;DHT22;30784;48.490;9.688;2022-09-17T17:10:15;13.00;57.00
45044;DHT22;30784;48.490;9.688;2022-09-17T17:12:41;13.00;57.10
45044;DHT22;30784;48.490;9.688;2022-09-17T17:15:07;13.00;57.20
45044;DHT22;30784;48.490;9.688;2022-09-17T17:17:34;12.90;57.30
45044;DHT22;30784;48.490;9.688;2022-09-17T17:20:04;12.90;57.30
45044;DHT22;30784;48.490;9.688;2022-09-17T17:22:32;12.90;57.60
45044;DHT22;30784;48.490;9.688;2022-09-17T17:24:58;12.80;57.60
45044;DHT22;30784;48.490;9.688;2022-09-17T17:27:24;12.70;57.70
45044;DHT22;30784;48.490;9.688;2022-09-17T17:29:50;12.70;57.70
45044;DHT22;30784;48.490;9.688;2022-09-17T17:32:16;12.70;58.00
45044;DHT22;30784;48.490;9.688;2022-09-17T17:34:48;12.60;57.90
45044;DHT22;30784;48.490;9.688;2022-09-17T17:37:15;12.50;58.00
45044;DHT22;30784;48.490;9.688;2022-09-17T17:39:41;12.50;58.20
45044;DHT22;30784;48.490;9.688;2022-09-17T17:42:07;12.50;58.40
45044;DHT22;30784;48.490;9.688;2022-09-17T17:44:33;12.50;58.50
45044;DHT22;30784;48.490;9.688;2022-09-17T17:47:01;12.40;58.40
45044;DHT22;30784;48.490;9.688;2022-09-17T17:49:27;12.40;58.50
45044;DHT22;30784;48.490;9.688;2022-09-17T17:51:53;12.30;58.60
45044;DHT22;30784;48.490;9.688;2022-09-17T17:54:21;12.30;58.80
45044;DHT22;30784;48.490;9.688;2022-09-17T17:56:46;12.20;58.90
45044;DHT22;30784;48.490;9.688;2022-09-17T17:59:15;12.20;59.00
45044;DHT22;30784;48.490;9.688;2022-09-17T18:01:43;12.20;59.10
45044;DHT22;30784;48.490;9.688;2022-09-17T18:04:08;12.20;59.30
45044;DHT22;30784;48.490;9.688;2022-09-17T18:06:35;12.20;59.50
45044;DHT22;30784;48.490;9.688;2022-09-17T18:09:01;12.20;59.70
45044;DHT22;30784;48.490;9.688;2022-09-17T18:11:28;12.10;59.60
45044;DHT22;30784;48.490;9.688;2022-09-17T18:13:57;12.10;59.70
45044;DHT22;30784;48.490;9.688;2022-09-17T18:16:25;12.10;60.00
45044;DHT22;30784;48.490;9.688;2022-09-17T18:18:55;12.10;60.20
45044;DHT22;30784;48.490;9.688;2022-09-17T18:21:24;12.10;60.40
45044;DHT22;30784;48.490;9.688;2022-09-17T18:23:50;12.10;60.40
45044;DHT22;30784;48.490;9.688;2022-09-17T18:26:19;12.10;60.60
45044;DHT22;30784;48.490;9.688;2022-09-17T18:28:48;12.10;60.50
45044;DHT22;30784;48.490;9.688;2022-09-17T18:33:40;12.00;60.70
45044;DHT22;30784;48.490;9.688;2022-09-17T18:36:09;12.00;60.80
45044;DHT22;30784;48.490;9.688;2022-09-17T18:38:35;12.00;60.90
45044;DHT22;30784;48.490;9.688;2022-09-17T18:41:09;12.00;61.10
45044;DHT22;30784;48.490;9.688;2022-09-17T18:43:36;12.00;61.20
45044;DHT22;30784;48.490;9.688;2022-09-17T18:46:04;12.00;61.50
45044;DHT22;30784;48.490;9.688;2022-09-17T18:48:30;12.00;61.10
45044;DHT22;30784;48.490;9.688;2022-09-17T18:51:08;12.00;60.80
45044;DHT22;30784;48.490;9.688;2022-09-17T18:53:35;12.00;60.70
45044;DHT22;30784;48.490;9.688;2022-09-17T18:58:33;11.90;61.10
45044;DHT22;30784;48.490;9.688;2022-09-17T19:01:02;11.90;61.00
45044;DHT22;30784;48.490;9.688;2022-09-17T19:03:30;11.90;61.00
45044;DHT22;30784;48.490;9.688;2022-09-17T19:06:01;11.90;61.00
45044;DHT22;30784;48.490;9.688;2022-09-17T19:08:27;11.90;61.00
45044;DHT22;30784;48.490;9.688;2022-09-17T19:10:56;11.90;61.10
45044;DHT22;30784;48.490;9.688;2022-09-17T19:13:26;11.90;61.10
45044;DHT22;30784;48.490;9.688;2022-09-17T19:15:57;11.80;61.20
45044;DHT22;30784;48.490;9.688;2022-09-17T19:18:24;11.80;61.30
45044;DHT22;30784;48.490;9.688;2022-09-17T19:20:49;11.80;61.30
45044;DHT22;30784;48.490;9.688;2022-09-17T19:23:15;11.80;61.50
45044;DHT22;30784;48.490;9.688;2022-09-17T19:25:40;11.80;61.70
45044;DHT22;30784;48.490;9.688;2022-09-17T19:28:06;11.80;61.70